sensor_id;sensor_type;location;lat;lon;timestamp;temperature;humidity
49148;DHT22;41980;45.550;12.070;2022-12-26T00:06:18;9.80;83.00
49148;DHT22;41980;45.550;12.070;2022-12-26T00:12:34;9.80;83.00
49148;DHT22;41980;45.550;12.070;2022-12-26T00:18:46;9.80;83.20
49148;DHT22;41980;45.550;12.070;2022-12-26T00:24:49;9.80;83.20
49148;DHT22;41980;45.550;12.070;2022-12-26T00:30:51;9.80;83.00
49148;DHT22;41980;45.550;12.070;2022-12-26T00:36:53;9.80;83.20
49148;DHT22;41980;45.550;12.070;2022-12-26T00:42:55;9.80;83.30
49148;DHT22;41980;45.550;12.070;2022-12-26T00:48:57;9.80;83.20
49148;DHT22;41980;45.550;12.070;2022-12-26T00:54:58;9.80;83.40
49148;DHT22;41980;45.550;12.070;2022-12-26T01:01:09;9.80;83.30
49148;DHT22;41980;45.550;12.070;2022-12-26T01:07:13;9.80;83.10
49148;DHT22;41980;45.550;12.070;2022-12-26T01:13:16;9.80;83.10
49148;DHT22;41980;45.550;12.070;2022-12-26T01:19:18;9.70;83.20
49148;DHT22;41980;45.550;12.070;2022-12-26T01:25:20;9.70;83.20
49148;DHT22;41980;45.550;12.070;2022-12-26T01:31:22;9.70;83.10
49148;DHT22;41980;45.550;12.070;2022-12-26T01:37:24;9.70;83.10
49148;DHT22;41980;45.550;12.070;2022-12-26T01:43:44;9.70;83.10
49148;DHT22;41980;45.550;12.070;2022-12-26T01:49:53;9.70;83.20
49148;DHT22;41980;45.550;12.070;2022-12-26T01:56:01;9.60;83.20
49148;DHT22;41980;45.550;12.070;2022-12-26T02:02:05;9.70;83.20
49148;DHT22;41980;45.550;12.070;2022-12-26T02:08:13;9.60;83.30
49148;DHT22;41980;45.550;12.070;2022-12-26T02:14:16;9.60;83.30
49148;DHT22;41980;45.550;12.070;2022-12-26T02:20:22;9.60;83.50
49148;DHT22;41980;45.550;12.070;2022-12-26T02:33:17;9.60;83.40
49148;DHT22;41980;45.550;12.070;2022-12-26T02:39:33;9.60;83.10
49148;DHT22;41980;45.550;12.070;2022-12-26T02:46:01;9.60;83.30
49148;DHT22;41980;45.550;12.070;2022-12-26T02:52:34;9.60;83.20
49148;DHT22;41980;45.550;12.070;2022-12-26T02:59:00;9.60;83.10
49148;DHT22;41980;45.550;12.070;2022-12-26T03:05:26;9.60;83.00
49148;DHT22;41980;45.550;12.070;2022-12-26T03:11:50;9.60;83.00
49148;DHT22;41980;45.550;12.070;2022-12-26T03:18:08;9.60;83.00
49148;DHT22;41980;45.550;12.070;2022-12-26T03:24:14;9.60;83.10
49148;DHT22;41980;45.550;12.070;2022-12-26T03:30:16;9.60;83.10
49148;DHT22;41980;45.550;12.070;2022-12-26T03:43:35;9.60;83.20
49148;DHT22;41980;45.550;12.070;2022-12-26T03:50:00;9.50;83.40
49148;DHT22;41980;45.550;12.070;2022-12-26T03:56:24;9.60;83.40
49148;DHT22;41980;45.550;12.070;2022-12-26T04:02:49;9.50;83.30
49148;DHT22;41980;45.550;12.070;2022-12-26T04:09:14;9.50;83.50
49148;DHT22;41980;45.550;12.070;2022-12-26T04:28:28;9.10;83.40
49148;DHT22;41980;45.550;12.070;2022-12-26T04:34:50;8.90;83.50
49148;DHT22;41980;45.550;12.070;2022-12-26T04:41:11;8.80;83.80
49148;DHT22;41980;45.550;12.070;2022-12-26T04:47:30;8.80;84.10
49148;DHT22;41980;45.550;12.070;2022-12-26T04:53:33;8.90;84.00
49148;DHT22;41980;45.550;12.070;2022-12-26T04:59:35;8.90;83.90
49148;DHT22;41980;45.550;12.070;2022-12-26T05:05:41;8.80;83.90
49148;DHT22;41980;45.550;12.070;2022-12-26T05:12:02;8.80;83.90
49148;DHT22;41980;45.550;12.070;2022-12-26T05:18:05;8.70;83.90
49148;DHT22;41980;45.550;12.070;2022-12-26T05:24:25;8.70;84.00
49148;DHT22;41980;45.550;12.070;2022-12-26T05:30:43;8.70;84.00
49148;DHT22;41980;45.550;12.070;2022-12-26T05:36:46;8.80;84.00
49148;DHT22;41980;45.550;12.070;2022-12-26T05:42:49;8.80;84.30
49148;DHT22;41980;45.550;12.070;2022-12-26T05:48:51;8.80;84.20
49148;DHT22;41980;45.550;12.070;2022-12-26T05:54:54;8.80;84.20
49148;DHT22;41980;45.550;12.070;2022-12-26T06:07:14;8.90;84.30
49148;DHT22;41980;45.550;12.070;2022-12-26T06:13:16;8.90;84.00
49148;DHT22;41980;45.550;12.070;2022-12-26T06:19:18;8.90;84.50
49148;DHT22;41980;45.550;12.070;2022-12-26T06:25:20;8.90;84.20
49148;DHT22;41980;45.550;12.070;2022-12-26T06:31:23;9.00;84.10
49148;DHT22;41980;45.550;12.070;2022-12-26T06:37:25;9.00;84.50
49148;DHT22;41980;45.550;12.070;2022-12-26T06:43:27;8.90;84.10
49148;DHT22;41980;45.550;12.070;2022-12-26T06:49:28;8.90;84.30
49148;DHT22;41980;45.550;12.070;2022-12-26T06:55:30;8.90;84.00
49148;DHT22;41980;45.550;12.070;2022-12-26T07:01:33;9.00;84.30
49148;DHT22;41980;45.550;12.070;2022-12-26T07:07:35;9.00;84.10
49148;DHT22;41980;45.550;12.070;2022-12-26T07:13:37;9.00;84.00
49148;DHT22;41980;45.550;12.070;2022-12-26T07:19:39;9.00;84.30
49148;DHT22;41980;45.550;12.070;2022-12-26T07:25:41;9.00;83.80
49148;DHT22;41980;45.550;12.070;2022-12-26T07:31:43;9.10;83.80
49148;DHT22;41980;45.550;12.070;2022-12-26T07:37:45;9.20;83.80
49148;DHT22;41980;45.550;12.070;2022-12-26T07:43:47;9.20;83.80
49148;DHT22;41980;45.550;12.070;2022-12-26T07:49:49;9.30;83.80
49148;DHT22;41980;45.550;12.070;2022-12-26T07:55:51;9.40;83.70
49148;DHT22;41980;45.550;12.070;2022-12-26T08:01:53;9.50;83.60
49148;DHT22;41980;45.550;12.070;2022-12-26T08:07:57;9.50;83.50
49148;DHT22;41980;45.550;12.070;2022-12-26T08:13:59;9.50;83.40
49148;DHT22;41980;45.550;12.070;2022-12-26T08:20:01;9.60;83.40
49148;DHT22;41980;45.550;12.070;2022-12-26T08:26:05;9.60;83.40
49148;DHT22;41980;45.550;12.070;2022-12-26T08:32:07;9.70;83.30
49148;DHT22;41980;45.550;12.070;2022-12-26T08:38:09;9.70;83.30
49148;DHT22;41980;45.550;12.070;2022-12-26T08:44:11;9.80;83.30
49148;DHT22;41980;45.550;12.070;2022-12-26T08:50:15;9.80;83.20
49148;DHT22;41980;45.550;12.070;2022-12-26T08:56:21;9.90;83.20
49148;DHT22;41980;45.550;12.070;2022-12-26T09:02:23;10.00;83.10
49148;DHT22;41980;45.550;12.070;2022-12-26T09:08:29;10.10;83.00
49148;DHT22;41980;45.550;12.070;2022-12-26T09:14:31;10.10;83.00
49148;DHT22;41980;45.550;12.070;2022-12-26T09:20:33;10.20;82.80
49148;DHT22;41980;45.550;12.070;2022-12-26T09:26:35;10.30;82.90
49148;DHT22;41980;45.550;12.070;2022-12-26T09:32:38;10.50;82.80
49148;DHT22;41980;45.550;12.070;2022-12-26T09:38:40;10.60;82.70
49148;DHT22;41980;45.550;12.070;2022-12-26T09:44:48;10.80;82.30
49148;DHT22;41980;45.550;12.070;2022-12-26T09:50:52;10.90;82.60
49148;DHT22;41980;45.550;12.070;2022-12-26T09:56:58;11.10;82.40
49148;DHT22;41980;45.550;12.070;2022-12-26T10:03:03;11.20;82.10
49148;DHT22;41980;45.550;12.070;2022-12-26T10:22:03;11.30;82.20
49148;DHT22;41980;45.550;12.070;2022-12-26T10:28:22;11.40;82.20
49148;DHT22;41980;45.550;12.070;2022-12-26T10:34:44;11.50;82.10
49148;DHT22;41980;45.550;12.070;2022-12-26T10:40:50;11.50;81.90
49148;DHT22;41980;45.550;12.070;2022-12-26T10:47:16;11.50;81.90
49148;DHT22;41980;45.550;12.070;2022-12-26T10:53:20;11.60;82.00
49148;DHT22;41980;45.550;12.070;2022-12-26T11:11:48;11.70;81.80
49148;DHT22;41980;45.550;12.070;2022-12-26T11:17:54;11.70;81.30
49148;DHT22;41980;45.550;12.070;2022-12-26T11:42:20;12.00;81.60
49148;DHT22;41980;45.550;12.070;2022-12-26T11:48:24;12.10;81.60
49148;DHT22;41980;45.550;12.070;2022-12-26T11:54:34;12.20;81.70
49148;DHT22;41980;45.550;12.070;2022-12-26T12:06:53;12.10;80.80
49148;DHT22;41980;45.550;12.070;2022-12-26T12:13:16;12.00;81.40
49148;DHT22;41980;45.550;12.070;2022-12-26T13:03:39;11.70;81.80
49148;DHT22;41980;45.550;12.070;2022-12-26T13:09:48;11.80;81.90
49148;DHT22;41980;45.550;12.070;2022-12-26T13:15:56;11.90;81.90
49148;DHT22;41980;45.550;12.070;2022-12-26T13:22:04;11.90;81.70
49148;DHT22;41980;45.550;12.070;2022-12-26T13:28:18;11.90;81.80
49148;DHT22;41980;45.550;12.070;2022-12-26T13:34:22;11.90;81.70
49148;DHT22;41980;45.550;12.070;2022-12-26T13:40:28;11.80;81.60
49148;DHT22;41980;45.550;12.070;2022-12-26T13:52:45;11.70;81.60
49148;DHT22;41980;45.550;12.070;2022-12-26T13:58:59;11.60;81.70
49148;DHT22;41980;45.550;12.070;2022-12-26T14:11:49;11.50;82.00
49148;DHT22;41980;45.550;12.070;2022-12-26T14:30:39;11.40;82.20
49148;DHT22;41980;45.550;12.070;2022-12-26T14:37:09;11.30;82.20
49148;DHT22;41980;45.550;12.070;2022-12-26T15:01:49;11.20;82.30
49148;DHT22;41980;45.550;12.070;2022-12-26T15:33:11;10.90;82.50
49148;DHT22;41980;45.550;12.070;2022-12-26T15:45:54;10.90;82.60
49148;DHT22;41980;45.550;12.070;2022-12-26T16:14:24;10.80;82.80
49148;DHT22;41980;45.550;12.070;2022-12-26T16:20:59;10.80;82.80
49148;DHT22;41980;45.550;12.070;2022-12-26T16:35:04;10.70;82.90
49148;DHT22;41980;45.550;12.070;2022-12-26T16:41:37;10.60;83.00
49148;DHT22;41980;45.550;12.070;2022-12-26T16:54:34;10.60;82.90
49148;DHT22;41980;45.550;12.070;2022-12-26T17:01:54;10.50;82.90
49148;DHT22;41980;45.550;12.070;2022-12-26T17:08:09;10.50;83.00
49148;DHT22;41980;45.550;12.070;2022-12-26T17:14:57;10.50;83.10
49148;DHT22;41980;45.550;12.070;2022-12-26T17:34:39;10.50;83.10
49148;DHT22;41980;45.550;12.070;2022-12-26T17:41:26;10.50;83.10
49148;DHT22;41980;45.550;12.070;2022-12-26T17:54:22;10.40;83.10
49148;DHT22;41980;45.550;12.070;2022-12-26T18:01:27;10.40;83.30
49148;DHT22;41980;45.550;12.070;2022-12-26T18:09:26;10.40;83.30
49148;DHT22;41980;45.550;12.070;2022-12-26T18:15:57;10.40;83.30
49148;DHT22;41980;45.550;12.070;2022-12-26T18:22:21;10.30;83.30
49148;DHT22;41980;45.550;12.070;2022-12-26T18:29:09;10.30;83.30
49148;DHT22;41980;45.550;12.070;2022-12-26T18:42:48;10.30;83.30
49148;DHT22;41980;45.550;12.070;2022-12-26T18:48:54;10.30;83.30
49148;DHT22;41980;45.550;12.070;2022-12-26T19:01:36;10.20;83.40
49148;DHT22;41980;45.550;12.070;2022-12-26T19:23:06;10.10;83.40
49148;DHT22;41980;45.550;12.070;2022-12-26T19:30:07;10.20;83.60
49148;DHT22;41980;45.550;12.070;2022-12-26T19:43:59;10.10;83.50
49148;DHT22;41980;45.550;12.070;2022-12-26T19:50:24;10.00;83.60
49148;DHT22;41980;45.550;12.070;2022-12-26T19:56:59;10.10;83.60
49148;DHT22;41980;45.550;12.070;2022-12-26T20:03:15;10.00;83.60
49148;DHT22;41980;45.550;12.070;2022-12-26T20:09:20;10.00;83.80
49148;DHT22;41980;45.550;12.070;2022-12-26T20:16:10;10.00;83.80
49148;DHT22;41980;45.550;12.070;2022-12-26T20:30:39;10.00;83.80
49148;DHT22;41980;45.550;12.070;2022-12-26T20:36:41;10.00;83.70
49148;DHT22;41980;45.550;12.070;2022-12-26T20:42:58;10.00;83.80
49148;DHT22;41980;45.550;12.070;2022-12-26T20:49:24;10.00;83.90
49148;DHT22;41980;45.550;12.070;2022-12-26T20:55:35;10.00;83.90
49148;DHT22;41980;45.550;12.070;2022-12-26T21:01:38;10.00;83.60
49148;DHT22;41980;45.550;12.070;2022-12-26T21:07:41;10.10;83.60
49148;DHT22;41980;45.550;12.070;2022-12-26T21:13:53;10.00;83.60
49148;DHT22;41980;45.550;12.070;2022-12-26T21:20:00;10.00;83.80
49148;DHT22;41980;45.550;12.070;2022-12-26T21:26:07;10.10;84.10
49148;DHT22;41980;45.550;12.070;2022-12-26T21:32:20;10.00;83.90
49148;DHT22;41980;45.550;12.070;2022-12-26T21:38:28;10.10;83.60
49148;DHT22;41980;45.550;12.070;2022-12-26T21:44:31;10.10;83.70
49148;DHT22;41980;45.550;12.070;2022-12-26T21:50:35;10.00;83.70
49148;DHT22;41980;45.550;12.070;2022-12-26T21:56:39;10.00;83.70
49148;DHT22;41980;45.550;12.070;2022-12-26T22:02:41;10.00;83.80
49148;DHT22;41980;45.550;12.070;2022-12-26T22:09:01;10.00;83.80
49148;DHT22;41980;45.550;12.070;2022-12-26T22:15:04;10.00;83.80
49148;DHT22;41980;45.550;12.070;2022-12-26T22:21:31;10.00;84.10
49148;DHT22;41980;45.550;12.070;2022-12-26T22:27:36;10.00;83.90
49148;DHT22;41980;45.550;12.070;2022-12-26T22:33:40;10.10;83.70
49148;DHT22;41980;45.550;12.070;2022-12-26T22:39:42;10.00;83.70
49148;DHT22;41980;45.550;12.070;2022-12-26T22:45:44;10.00;83.80
49148;DHT22;41980;45.550;12.070;2022-12-26T22:51:50;10.00;84.20
49148;DHT22;41980;45.550;12.070;2022-12-26T22:58:15;10.00;83.80
49148;DHT22;41980;45.550;12.070;2022-12-26T23:04:25;9.90;83.90
49148;DHT22;41980;45.550;12.070;2022-12-26T23:10:29;10.00;84.00
49148;DHT22;41980;45.550;12.070;2022-12-26T23:17:14;10.00;83.90
49148;DHT22;41980;45.550;12.070;2022-12-26T23:23:40;10.10;83.80
49148;DHT22;41980;45.550;12.070;2022-12-26T23:29:42;10.00;83.80
49148;DHT22;41980;45.550;12.070;2022-12-26T23:36:00;10.00;83.90
49148;DHT22;41980;45.550;12.070;2022-12-26T23:42:03;10.10;84.10
49148;DHT22;41980;45.550;12.070;2022-12-26T23:48:15;10.00;84.10
49148;DHT22;41980;45.550;12.070;2022-12-26T23:54:37;10.10;83.90
